Summerfield, Ohio
Current Conditions -  °F | °C
As of 6:53 PM on Wednesday 28 Jan 2015 (Local Time) from KZZV Reporting Station
Clear Clear  
Wind Chill: 16°   Ceiling: Unl
Heat Index: 22°   Visibility: 10mi
Dew Point: 13°   Wind: 5mph
Humidity: 68%   Direction: 140°SE
Pressure: 30.29"   Gusts: NA
Location:  39.8°N, 81.34°W
Report Text: KZZV 282353Z AUTO 14004KT 10SM CLR M06/M11 A3029 RMK AO2 SLP273 60000 T10561106 11022 21056 58010
Loading
Personal Weather Stations






























Interactive Weather Map New forecast layout! Learn more

10-Day Weather Forecast

Advertisements
Track Severe Weather on mobile